Time;durP1;ratioP1;P1;durP2;ratioP2;P2;SDS_P1;SDS_P2;PMS_P1;PMS_P2;Temp;Humidity;BMP_temperature;BMP_pressure;BME280_temperature;BME280_humidity;BME280_pressure;Samples;Min_cycle;Max_cycle;Signal;HPM_P1;HPM_P2
2021/11/21 00:00:54;;;;;;;19.50;10.30;;;8.80;1.00;;;;;;4995113;28;20216;-77
2021/11/21 00:03:36;;;;;;;18.60;9.23;;;8.80;1.00;;;;;;5007936;28;20458;-77
2021/11/21 00:06:14;;;;;;;18.20;10.03;;;8.80;1.00;;;;;;5010166;28;20929;-76
2021/11/21 00:08:40;;;;;;;16.77;9.80;;;8.80;1.00;;;;;;5010228;28;20419;-74
2021/11/21 00:11:19;;;;;;;18.53;10.03;;;8.80;1.00;;;;;;5012928;28;20737;-74
2021/11/21 00:14:02;;;;;;;20.47;10.10;;;8.80;1.00;;;;;;5011388;28;20183;-74
2021/11/21 00:16:36;;;;;;;21.43;10.10;;;8.80;1.00;;;;;;5001078;28;20413;-74
2021/11/21 00:19:03;;;;;;;22.33;10.53;;;8.80;1.00;;;;;;5003831;28;20455;-74
2021/11/21 00:21:30;;;;;;;20.00;9.93;;;8.80;1.00;;;;;;5006460;28;20412;-74
2021/11/21 00:23:56;;;;;;;20.20;9.90;;;8.80;1.00;;;;;;5011189;28;20515;-77
2021/11/21 00:26:22;;;;;;;17.33;10.13;;;8.70;1.00;;;;;;5013992;28;20970;-77
2021/11/21 00:29:24;;;;;;;19.73;10.50;;;9.60;1.00;;;;;;5013974;28;20412;-77
2021/11/21 00:31:50;;;;;;;23.03;10.67;;;8.70;1.00;;;;;;5012229;28;20805;-78
2021/11/21 00:34:24;;;;;;;15.07;9.20;;;8.80;1.00;;;;;;5006623;28;20470;-77
2021/11/21 00:37:06;;;;;;;18.30;10.43;;;8.80;1.00;;;;;;5014050;28;20180;-77
2021/11/21 00:39:36;;;;;;;20.07;10.20;;;8.70;1.00;;;;;;5014105;28;20819;-77
2021/11/21 00:42:07;;;;;;;19.47;10.10;;;8.70;1.00;;;;;;5005870;28;20831;-76
2021/11/21 00:44:36;;;;;;;16.73;9.93;;;8.70;1.00;;;;;;5013368;28;20518;-77
2021/11/21 00:47:06;;;;;;;18.60;10.57;;;8.70;1.00;;;;;;5008530;28;20431;-77
2021/11/21 00:49:54;;;;;;;18.50;9.70;;;8.70;1.00;;;;;;5001437;28;20554;-77
2021/11/21 00:52:33;;;;;;;20.83;10.60;;;8.70;1.00;;;;;;5014041;28;20428;-77
2021/11/21 00:57:43;;;;;;;17.37;9.90;;;8.70;1.00;;;;;;5013781;28;20747;-74
2021/11/21 01:00:12;;;;;;;22.30;9.93;;;8.70;1.00;;;;;;5013428;28;20412;-74
2021/11/21 01:02:39;;;;;;;23.47;11.40;;;8.60;1.00;;;;;;5011376;28;20918;-74
2021/11/21 01:05:08;;;;;;;19.87;10.93;;;8.60;1.00;;;;;;5008525;28;20420;-74
2021/11/21 01:07:37;;;;;;;25.63;10.40;;;8.60;1.00;;;;;;5013669;28;20420;-74
2021/11/21 01:10:09;;;;;;;20.63;9.93;;;8.50;1.00;;;;;;5014072;28;20946;-74
2021/11/21 01:12:36;;;;;;;17.00;9.93;;;8.40;1.00;;;;;;5013829;28;20404;-74
2021/11/21 01:15:04;;;;;;;21.20;10.33;;;8.40;1.00;;;;;;5005333;28;20503;-74
2021/11/21 01:17:30;;;;;;;17.23;10.03;;;8.40;1.00;;;;;;5013784;28;20448;-74
2021/11/21 01:20:00;;;;;;;23.70;10.77;;;8.30;1.00;;;;;;5001480;28;20440;-75
2021/11/21 01:22:27;;;;;;;19.70;11.70;;;8.30;1.00;;;;;;4998972;28;20907;-74
2021/11/21 01:24:54;;;;;;;19.57;10.17;;;8.30;1.00;;;;;;5012817;28;20420;-74
2021/11/21 01:27:20;;;;;;;21.97;10.40;;;8.20;1.00;;;;;;5013563;28;20439;-74
2021/11/21 01:29:45;;;;;;;19.47;11.07;;;8.30;1.00;;;;;;5007103;28;20456;-74
2021/11/21 01:32:11;;;;;;;25.83;11.13;;;8.50;1.00;;;;;;5006141;28;20177;-74
2021/11/21 01:34:37;;;;;;;21.30;10.20;;;8.20;1.00;;;;;;5000021;28;20176;-74
2021/11/21 01:37:06;;;;;;;23.27;10.87;;;8.30;1.00;;;;;;5011661;28;20624;-74
2021/11/21 01:39:42;;;;;;;25.23;11.17;;;8.30;1.00;;;;;;5013021;28;20267;-74
2021/11/21 01:42:08;;;;;;;21.10;10.43;;;8.30;1.00;;;;;;5006841;28;21131;-74
2021/11/21 01:44:34;;;;;;;22.60;11.13;;;;;;;;;;5005162;28;20408;-74
2021/11/21 01:47:00;;;;;;;20.43;11.20;;;8.30;1.00;;;;;;5013077;28;20420;-74
2021/11/21 01:49:26;;;;;;;23.30;11.77;;;8.50;1.00;;;;;;5013297;28;20471;-74
2021/11/21 01:51:52;;;;;;;19.40;11.17;;;8.30;1.00;;;;;;5013434;28;20424;-74
2021/11/21 01:54:24;;;;;;;16.53;9.83;;;8.30;1.00;;;;;;5017407;28;20267;-77
2021/11/21 01:56:55;;;;;;;22.13;11.17;;;8.30;1.00;;;;;;5016927;28;20216;-77
2021/11/21 01:59:36;;;;;;;19.23;10.20;;;8.80;1.00;;;;;;5016849;28;20490;-77
2021/11/21 02:02:30;;;;;;;22.37;10.00;;;8.30;1.00;;;;;;5017274;28;20423;-77
2021/11/21 02:05:07;;;;;;;32.73;10.60;;;8.20;1.00;;;;;;5016889;28;20461;-77
2021/11/21 02:07:34;;;;;;;18.83;9.53;;;8.30;1.00;;;;;;5016060;28;20416;-77
2021/11/21 02:10:15;;;;;;;19.47;10.40;;;8.20;1.00;;;;;;5016707;28;20460;-74
2021/11/21 02:12:41;;;;;;;20.03;9.13;;;8.20;1.00;;;;;;5016560;28;20412;-73
2021/11/21 02:15:13;;;;;;;19.43;10.20;;;8.20;1.00;;;;;;5013979;28;20458;-74
2021/11/21 02:17:43;;;;;;;20.00;9.37;;;8.20;1.00;;;;;;5016729;28;20448;-74
2021/11/21 02:20:17;;;;;;;24.23;9.80;;;8.10;1.00;;;;;;5015507;28;20769;-74
2021/11/21 02:22:48;;;;;;;19.17;9.77;;;8.10;1.00;;;;;;5016418;28;20462;-74
2021/11/21 02:25:31;;;;;;;19.70;10.43;;;8.10;1.00;;;;;;5016935;28;20485;-77
2021/11/21 02:28:07;;;;;;;22.47;9.30;;;8.10;1.00;;;;;;5014588;28;20443;-77
2021/11/21 02:30:37;;;;;;;20.80;9.70;;;8.10;1.00;;;;;;5016324;28;20906;-77
2021/11/21 02:33:11;;;;;;;22.23;10.07;;;8.00;1.00;;;;;;5014768;28;20439;-77
2021/11/21 02:36:06;;;;;;;19.97;9.70;;;8.00;1.00;;;;;;5016531;28;20434;-77
2021/11/21 02:38:37;;;;;;;19.53;10.60;;;8.00;1.00;;;;;;5006985;28;20501;-77
2021/11/21 02:41:08;;;;;;;24.17;10.07;;;8.00;1.00;;;;;;5014706;28;20435;-77
2021/11/21 02:43:34;;;;;;;22.20;11.27;;;;;;;;;;5011642;28;20420;-76
2021/11/21 02:46:06;;;;;;;24.70;10.73;;;7.90;1.00;;;;;;5015782;28;20465;-77
2021/11/21 02:48:34;;;;;;;23.37;11.00;;;7.90;1.00;;;;;;5015511;28;20459;-77
2021/11/21 02:51:03;;;;;;;19.03;11.07;;;7.80;1.00;;;;;;5013774;28;20841;-77
2021/11/21 02:53:31;;;;;;;21.60;11.60;;;7.90;1.00;;;;;;5015177;28;20412;-77
2021/11/21 02:55:59;;;;;;;19.90;11.17;;;7.90;1.00;;;;;;5015976;28;20425;-77
2021/11/21 02:58:32;;;;;;;23.50;11.20;;;7.80;1.00;;;;;;5008426;28;20926;-77
2021/11/21 03:01:14;;;;;;;23.93;11.40;;;7.90;1.00;;;;;;5013086;28;20428;-77
2021/11/21 03:03:43;;;;;;;16.17;9.33;;;7.80;1.00;;;;;;5013978;28;20442;-76
2021/11/21 03:06:09;;;;;;;19.17;10.83;;;7.80;1.00;;;;;;5013096;28;20440;-77
2021/11/21 03:08:35;;;;;;;18.00;10.07;;;7.80;1.00;;;;;;5015425;28;20574;-77
2021/11/21 03:11:21;;;;;;;20.93;11.23;;;7.80;1.00;;;;;;5015850;28;20463;-74
2021/11/21 03:13:47;;;;;;;20.73;9.03;;;7.80;1.00;;;;;;5015679;28;20534;-74
2021/11/21 03:16:18;;;;;;;17.73;8.37;;;7.70;1.00;;;;;;5014811;28;20428;-74
2021/11/21 03:19:00;;;;;;;19.47;9.70;;;7.80;1.00;;;;;;5002627;28;20169;-74
2021/11/21 03:21:26;;;;;;;18.43;9.33;;;7.80;1.00;;;;;;5012987;28;20459;-74
2021/11/21 03:23:52;;;;;;;19.63;9.37;;;7.80;1.00;;;;;;5015487;28;20533;-74
2021/11/21 03:26:31;;;;;;;16.23;8.47;;;7.90;1.00;;;;;;5015693;28;20791;-77
2021/11/21 03:29:06;;;;;;;15.17;8.23;;;7.90;1.00;;;;;;5015352;28;20468;-77
2021/11/21 03:31:37;;;;;;;15.87;7.80;;;7.90;1.00;;;;;;5013961;28;20763;-77
2021/11/21 03:34:04;;;;;;;13.70;7.63;;;;;;;;;;5015252;28;20483;-77
2021/11/21 03:36:30;;;;;;;18.83;8.67;;;7.90;1.00;;;;;;5014576;28;20416;-77
2021/11/21 03:38:56;;;;;;;16.47;8.30;;;7.80;1.00;;;;;;5014818;28;20432;-77
2021/11/21 03:41:31;;;;;;;18.37;7.60;;;7.80;1.00;;;;;;5012888;28;20435;-77
2021/11/21 03:44:08;;;;;;;16.83;7.87;;;7.80;1.00;;;;;;5013670;28;20510;-76
2021/11/21 03:47:06;;;;;;;13.90;7.40;;;7.80;1.00;;;;;;5005124;28;20427;-77
2021/11/21 03:49:37;;;;;;;16.07;8.30;;;7.80;1.00;;;;;;5014379;28;20618;-77
2021/11/21 03:52:07;;;;;;;19.73;7.60;;;7.80;1.00;;;;;;5014736;28;20427;-77
2021/11/21 03:54:33;;;;;;;19.63;8.40;;;7.70;1.00;;;;;;5016953;28;20424;-76
2021/11/21 03:56:58;;;;;;;20.57;7.30;;;7.60;1.00;;;;;;5017525;28;20945;-77
2021/11/21 03:59:30;;;;;;;16.90;7.50;;;7.60;1.00;;;;;;5014926;28;20287;-77
2021/11/21 04:02:01;;;;;;;15.57;8.60;;;7.60;1.00;;;;;;5014703;28;20173;-77
2021/11/21 04:04:36;;;;;;;13.77;7.93;;;7.60;1.00;;;;;;5015044;28;20848;-77
2021/11/21 04:07:06;;;;;;;14.70;7.67;;;7.60;1.00;;;;;;5014302;28;20443;-76
2021/11/21 04:09:38;;;;;;;14.90;8.20;;;7.60;1.00;;;;;;5014732;28;20459;-74
2021/11/21 04:12:04;;;;;;;17.20;8.83;;;7.60;1.00;;;;;;5014388;28;20517;-77
2021/11/21 04:14:30;;;;;;;16.97;8.87;;;7.70;1.00;;;;;;5013847;28;20507;-77
2021/11/21 04:17:00;;;;;;;16.60;8.13;;;7.70;1.00;;;;;;5014207;28;20511;-77
2021/11/21 04:19:30;;;;;;;13.63;7.13;;;7.70;1.00;;;;;;5001781;28;20177;-77
2021/11/21 04:22:00;;;;;;;16.07;8.50;;;7.70;1.00;;;;;;5014262;28;20506;-77
2021/11/21 04:24:26;;;;;;;23.63;8.17;;;7.70;1.00;;;;;;5014439;28;20419;-77
2021/11/21 04:26:54;;;;;;;17.47;7.47;;;7.70;1.00;;;;;;5014055;28;20990;-77
2021/11/21 04:29:20;;;;;;;13.50;7.37;;;;;;;;;;5014009;28;20610;-77
2021/11/21 04:31:50;;;;;;;19.03;7.80;;;7.70;1.00;;;;;;5013312;28;20455;-77
2021/11/21 04:34:17;;;;;;;11.43;6.90;;;;;;;;;;5000557;28;20408;-77
2021/11/21 04:36:43;;;;;;;33.13;8.73;;;;;;;;;;5013340;28;20953;-78
2021/11/21 04:39:25;;;;;;;21.40;9.10;;;7.70;1.00;;;;;;5014023;28;20793;-77
2021/11/21 04:42:01;;;;;;;16.77;8.37;;;7.60;1.00;;;;;;5010038;28;20805;-74
2021/11/21 04:44:31;;;;;;;20.30;8.97;;;7.60;1.00;;;;;;5005726;28;21070;-75
2021/11/21 04:46:57;;;;;;;18.33;8.13;;;7.60;1.00;;;;;;5013166;28;20846;-74
2021/11/21 04:49:23;;;;;;;15.70;8.03;;;;;;;;;;5013833;28;21096;-74
2021/11/21 04:51:55;;;;;;;14.97;7.63;;;7.60;1.00;;;;;;5011219;28;20431;-74
2021/11/21 04:54:22;;;;;;;15.37;8.43;;;7.60;1.00;;;;;;5013719;28;20446;-75
2021/11/21 04:56:48;;;;;;;18.17;8.03;;;7.50;1.00;;;;;;5014735;28;20442;-74
2021/11/21 04:59:20;;;;;;;16.13;8.57;;;7.50;1.00;;;;;;5013702;28;20435;-74
2021/11/21 05:01:54;;;;;;;14.33;7.57;;;7.50;1.00;;;;;;5012212;28;20502;-74
2021/11/21 05:04:25;;;;;;;15.20;8.37;;;7.50;1.00;;;;;;5013683;28;20416;-74
2021/11/21 05:06:54;;;;;;;15.20;7.77;;;7.50;1.00;;;;;;5013270;28;20463;-74
2021/11/21 05:09:20;;;;;;;18.77;7.90;;;7.60;1.00;;;;;;5013492;28;20460;-74
2021/11/21 05:12:00;;;;;;;16.27;7.27;;;7.60;1.00;;;;;;5013990;28;20477;-79
2021/11/21 05:14:31;;;;;;;16.50;7.97;;;7.60;1.00;;;;;;5013680;28;20181;-77
2021/11/21 05:17:00;;;;;;;19.47;8.67;;;7.60;1.00;;;;;;5013463;28;20907;-77
2021/11/21 05:19:31;;;;;;;17.00;8.37;;;7.60;1.00;;;;;;5013238;28;20434;-76
2021/11/21 05:21:56;;;;;;;13.97;6.90;;;7.60;1.00;;;;;;5002152;28;20445;-77
2021/11/21 05:24:36;;;;;;;20.40;9.17;;;7.60;1.00;;;;;;5007903;28;20901;-77
2021/11/21 05:27:03;;;;;;;14.67;7.43;;;7.60;1.00;;;;;;5013331;28;20180;-77
2021/11/21 05:32:54;;;;;;;16.73;8.03;;;7.50;1.00;;;;;;5013008;28;20836;-77
2021/11/21 05:35:42;;;;;;;19.43;9.00;;;7.50;1.00;;;;;;5013020;28;20436;-77
2021/11/21 05:38:18;;;;;;;17.10;7.50;;;7.50;1.00;;;;;;5012940;28;20914;-77
2021/11/21 05:41:24;;;;;;;15.27;6.17;;;7.50;1.00;;;;;;5000361;28;20474;-78
2021/11/21 05:47:12;;;;;;;13.30;6.90;;;7.40;1.00;;;;;;5007889;28;20406;-76
2021/11/21 05:49:43;;;;;;;17.03;8.30;;;7.40;1.00;;;;;;5013230;28;20558;-76
2021/11/21 05:52:12;;;;;;;22.30;8.03;;;7.40;1.00;;;;;;5012901;28;20411;-76
2021/11/21 05:54:38;;;;;;;17.97;10.20;;;7.40;1.00;;;;;;5013335;28;20455;-76
2021/11/21 05:57:05;;;;;;;14.33;8.37;;;7.40;1.00;;;;;;5013137;28;20420;-74
2021/11/21 05:59:38;;;;;;;24.40;8.70;;;7.40;1.00;;;;;;5012897;28;20181;-74
2021/11/21 06:02:04;;;;;;;17.50;8.23;;;7.40;1.00;;;;;;4999779;28;20790;-74
2021/11/21 06:04:31;;;;;;;19.40;9.43;;;7.50;1.00;;;;;;5012862;28;20463;-74
2021/11/21 06:06:57;;;;;;;21.13;8.70;;;7.50;1.00;;;;;;5010704;28;20423;-74
2021/11/21 06:09:23;;;;;;;20.20;8.13;;;7.50;1.00;;;;;;4993224;28;20801;-74
2021/11/21 06:12:01;;;;;;;18.10;8.40;;;7.50;1.00;;;;;;5008781;28;20466;-76
2021/11/21 06:14:27;;;;;;;14.67;7.87;;;7.40;1.00;;;;;;5005377;28;20579;-76
2021/11/21 06:17:01;;;;;;;16.83;9.13;;;7.40;1.00;;;;;;5006237;28;20459;-76
2021/11/21 06:19:38;;;;;;;20.60;9.33;;;7.40;1.00;;;;;;4996111;28;20459;-76
2021/11/21 06:22:07;;;;;;;17.37;8.80;;;7.40;1.00;;;;;;5004997;28;20898;-76
2021/11/21 06:24:43;;;;;;;19.83;7.50;;;7.50;1.00;;;;;;5012595;28;20423;-76
2021/11/21 06:27:13;;;;;;;22.10;8.87;;;7.50;1.00;;;;;;5012479;28;20830;-74
2021/11/21 06:29:39;;;;;;;17.83;9.57;;;7.60;1.00;;;;;;5000217;28;20542;-74
2021/11/21 06:32:05;;;;;;;20.20;8.97;;;7.50;1.00;;;;;;5012767;28;20879;-74
2021/11/21 06:34:36;;;;;;;17.00;8.47;;;7.60;1.00;;;;;;5011021;28;20786;-74
2021/11/21 06:37:08;;;;;;;20.30;9.37;;;7.50;1.00;;;;;;5010100;28;20529;-74
2021/11/21 06:39:37;;;;;;;23.10;8.97;;;7.60;1.00;;;;;;5013829;28;20485;-74
2021/11/21 06:42:05;;;;;;;16.17;7.87;;;7.60;1.00;;;;;;5012914;28;20432;-74
2021/11/21 06:44:31;;;;;;;18.33;8.47;;;7.60;1.00;;;;;;5009399;28;20459;-74
2021/11/21 06:46:56;;;;;;;13.83;7.67;;;7.60;1.00;;;;;;5014234;28;20459;-74
2021/11/21 06:49:23;;;;;;;17.90;8.30;;;7.50;1.00;;;;;;5014890;28;20216;-74
2021/11/21 06:51:49;;;;;;;17.30;8.30;;;;;;;;;;5013174;28;20181;-73
2021/11/21 06:54:15;;;;;;;15.80;8.90;;;;;;;;;;5014807;28;20432;-74
2021/11/21 06:56:43;;;;;;;18.53;8.90;;;7.60;1.00;;;;;;5016310;28;20806;-76
2021/11/21 06:59:09;;;;;;;18.20;8.37;;;7.50;1.00;;;;;;5015985;28;20424;-76
2021/11/21 07:01:40;;;;;;;18.50;8.00;;;7.50;1.00;;;;;;5016203;28;20423;-76
2021/11/21 07:04:08;;;;;;;19.70;8.83;;;7.60;1.00;;;;;;5016136;28;20411;-76
2021/11/21 07:06:49;;;;;;;21.30;8.70;;;7.60;1.00;;;;;;5014628;28;20833;-76
2021/11/21 07:09:30;;;;;;;21.03;9.60;;;7.60;1.00;;;;;;5014889;28;20490;-76
2021/11/21 07:12:01;;;;;;;18.33;8.03;;;7.70;1.00;;;;;;5013854;28;20782;-78
2021/11/21 07:14:42;;;;;;;14.20;7.20;;;7.70;1.00;;;;;;5015298;28;20448;-76
2021/11/21 07:17:25;;;;;;;15.50;7.03;;;;;;;;;;5004585;28;20416;-76
2021/11/21 07:23:20;;;;;;;13.33;7.23;;;7.60;1.00;;;;;;5014708;28;20773;-76
2021/11/21 07:25:48;;;;;;;16.80;6.40;;;7.60;1.00;;;;;;5015828;28;20416;-76
2021/11/21 07:28:14;;;;;;;17.80;7.43;;;7.60;1.00;;;;;;5014694;28;20802;-74
2021/11/21 07:30:40;;;;;;;13.67;7.07;;;7.60;1.00;;;;;;5015440;28;20442;-74
2021/11/21 07:33:12;;;;;;;12.00;5.87;;;7.60;1.00;;;;;;5015359;28;20173;-74
2021/11/21 07:36:00;;;;;;;19.60;7.00;;;7.60;1.00;;;;;;5009072;28;20635;-74
2021/11/21 07:38:26;;;;;;;11.37;7.20;;;7.60;1.00;;;;;;5011784;28;20411;-75
2021/11/21 07:40:52;;;;;;;16.27;7.93;;;7.50;1.00;;;;;;5005864;28;20736;-74
2021/11/21 07:43:20;;;;;;;18.30;7.00;;;7.50;1.00;;;;;;5013495;28;20216;-74
2021/11/21 07:45:49;;;;;;;16.90;7.77;;;7.50;1.00;;;;;;5014636;28;20416;-74
2021/11/21 07:48:15;;;;;;;16.10;6.97;;;7.50;1.00;;;;;;5014971;28;20848;-74
2021/11/21 07:50:42;;;;;;;13.00;7.07;;;7.50;1.00;;;;;;5014869;28;20507;-74
2021/11/21 07:53:08;;;;;;;14.20;7.67;;;;;;;;;;5014817;28;21029;-73
2021/11/21 07:55:34;;;;;;;21.90;7.93;;;7.60;1.00;;;;;;5015642;28;20436;-74
2021/11/21 07:58:00;;;;;;;16.13;6.50;;;7.60;1.00;;;;;;5015530;28;20428;-74
2021/11/21 08:00:26;;;;;;;11.27;6.40;;;7.60;1.00;;;;;;5014882;28;20435;-74
2021/11/21 08:03:01;;;;;;;14.77;7.13;;;7.60;1.00;;;;;;5015075;28;20419;-74
2021/11/21 08:05:27;;;;;;;17.53;6.57;;;7.70;1.00;;;;;;5014766;28;20620;-74
2021/11/21 08:07:55;;;;;;;12.73;6.77;;;;;;;;;;5014638;28;20423;-74
2021/11/21 08:10:21;;;;;;;12.03;6.20;;;7.80;1.00;;;;;;5014727;28;20468;-74
2021/11/21 08:13:08;;;;;;;11.63;5.73;;;7.80;1.00;;;;;;5014678;28;20968;-76
2021/11/21 08:15:37;;;;;;;12.23;7.27;;;7.80;1.00;;;;;;5014649;28;20415;-76
2021/11/21 08:18:08;;;;;;;12.17;6.20;;;7.80;1.00;;;;;;5014557;28;20507;-76
2021/11/21 08:20:34;;;;;;;17.40;6.80;;;7.90;1.00;;;;;;5014568;28;20785;-76
2021/11/21 08:23:07;;;;;;;8.50;5.50;;;7.80;1.00;;;;;;5014655;28;20419;-76
2021/11/21 08:25:55;;;;;;;11.77;6.90;;;7.80;1.00;;;;;;5014576;28;20416;-76
2021/11/21 08:28:21;;;;;;;13.10;6.73;;;7.80;1.00;;;;;;5014637;28;20511;-76
2021/11/21 08:30:49;;;;;;;22.03;6.50;;;7.80;1.00;;;;;;5014464;28;20439;-76
2021/11/21 08:33:19;;;;;;;14.70;7.60;;;7.80;1.00;;;;;;5014505;28;20173;-76
2021/11/21 08:36:36;;;;;;;12.40;6.30;;;7.80;1.00;;;;;;5014852;28;20400;-77
2021/11/21 08:39:13;;;;;;;11.90;6.60;;;7.90;1.00;;;;;;5014198;28;20388;-76
2021/11/21 08:41:56;;;;;;;13.20;5.20;;;8.00;1.00;;;;;;5010894;28;20589;-76
2021/11/21 08:44:31;;;;;;;13.27;6.67;;;7.80;1.00;;;;;;5011732;28;20432;-76
2021/11/21 08:46:57;;;;;;;12.03;6.50;;;7.70;1.00;;;;;;5011497;28;20451;-76
2021/11/21 08:49:48;;;;;;;11.40;6.57;;;7.80;1.00;;;;;;5014561;28;20510;-76
2021/11/21 08:52:25;;;;;;;15.03;6.50;;;7.80;1.00;;;;;;5014118;28;20494;-77
2021/11/21 08:55:02;;;;;;;11.37;5.90;;;7.80;1.00;;;;;;5013913;28;20420;-77
2021/11/21 08:57:28;;;;;;;13.30;6.23;;;7.90;1.00;;;;;;5014554;28;20396;-74
2021/11/21 08:59:55;;;;;;;12.40;6.40;;;8.00;1.00;;;;;;5012812;28;20462;-75
2021/11/21 09:02:20;;;;;;;14.60;6.50;;;8.00;1.00;;;;;;5012645;28;20420;-74
2021/11/21 09:04:46;;;;;;;9.80;5.97;;;8.10;1.00;;;;;;5013736;28;20400;-74
2021/11/21 09:07:12;;;;;;;11.43;6.17;;;8.10;1.00;;;;;;5013920;28;20683;-74
2021/11/21 09:09:38;;;;;;;14.27;6.97;;;8.10;1.00;;;;;;5012054;28;20467;-74
2021/11/21 09:12:04;;;;;;;14.60;5.60;;;8.00;1.00;;;;;;5008642;28;21793;-75
2021/11/21 09:14:30;;;;;;;10.60;5.60;;;8.10;1.00;;;;;;5013639;28;20617;-74
2021/11/21 09:17:00;;;;;;;14.00;6.00;;;8.00;1.00;;;;;;5013941;28;20523;-74
2021/11/21 09:19:26;;;;;;;9.17;5.80;;;7.90;1.00;;;;;;5007582;28;20178;-72
2021/11/21 09:22:01;;;;;;;13.00;6.13;;;7.80;1.00;;;;;;4995320;28;20432;-77
2021/11/21 09:24:27;;;;;;;11.97;6.07;;;;;;;;;;5009485;28;20203;-74
2021/11/21 09:26:53;;;;;;;8.70;5.10;;;7.80;1.00;;;;;;5011247;28;20470;-74
2021/11/21 09:29:18;;;;;;;8.80;5.27;;;7.90;1.00;;;;;;5013594;28;20464;-74
2021/11/21 09:31:44;;;;;;;7.97;5.70;;;7.90;1.00;;;;;;5013617;28;20180;-75
2021/11/21 09:34:19;;;;;;;11.53;6.07;;;8.00;1.00;;;;;;5013521;28;20555;-74
2021/11/21 09:36:45;;;;;;;7.93;5.40;;;8.00;1.00;;;;;;5013678;28;20169;-75
2021/11/21 09:39:12;;;;;;;9.17;5.70;;;8.00;1.00;;;;;;5013236;28;20424;-75
2021/11/21 09:41:55;;;;;;;13.83;5.70;;;8.00;1.00;;;;;;5011459;28;20920;-77
2021/11/21 09:44:42;;;;;;;8.53;4.90;;;8.10;1.00;;;;;;5013143;28;20474;-75
2021/11/21 09:47:08;;;;;;;13.50;5.70;;;8.10;1.00;;;;;;5011642;28;20419;-74
2021/11/21 09:49:34;;;;;;;9.13;5.27;;;8.20;1.00;;;;;;5013397;28;20431;-75
2021/11/21 09:52:01;;;;;;;10.57;6.13;;;8.20;1.00;;;;;;5013332;28;20786;-76
2021/11/21 09:54:31;;;;;;;9.67;5.87;;;8.40;1.00;;;;;;5014165;28;20411;-75
2021/11/21 09:57:01;;;;;;;12.20;5.70;;;8.50;1.00;;;;;;5025569;28;20458;-74
2021/11/21 10:00:12;;;;;;;12.97;5.50;;;8.70;1.00;;;;;;5014987;28;20452;-77
2021/11/21 10:02:44;;;;;;;9.67;5.60;;;8.90;1.00;;;;;;5013566;28;20388;-78
2021/11/21 10:08:33;;;;;;;11.27;4.50;;;8.90;1.00;;;;;;5012976;28;20468;-77
2021/11/21 10:11:08;;;;;;;10.50;5.00;;;8.70;1.00;;;;;;5013109;28;20422;-77
2021/11/21 10:14:02;;;;;;;9.00;4.77;;;8.70;1.00;;;;;;5015116;28;20905;-74
2021/11/21 10:16:44;;;;;;;9.73;4.03;;;8.70;1.00;;;;;;5011198;28;20778;-75
2021/11/21 10:19:13;;;;;;;8.37;5.20;;;8.80;1.00;;;;;;5004460;28;20463;-75
2021/11/21 10:22:00;;;;;;;8.27;4.67;;;8.90;1.00;;;;;;5016808;28;20428;-74
2021/11/21 10:24:32;;;;;;;13.90;5.10;;;8.90;1.00;;;;;;5009428;28;20436;-75
2021/11/21 10:27:10;;;;;;;10.73;5.10;;;9.10;1.00;;;;;;5015847;28;20444;-75
2021/11/21 10:33:06;;;;;;;16.03;5.37;;;9.50;1.00;;;;;;5016245;28;22134;-77
2021/11/21 10:39:14;;;;;;;6.50;4.00;;;9.80;1.00;;;;;;5015998;28;20485;-77
2021/11/21 10:45:03;;;;;;;7.80;4.13;;;9.90;1.00;;;;;;5011831;28;20760;-74
2021/11/21 10:48:01;;;;;;;5.17;3.60;;;9.90;1.00;;;;;;5014807;28;20436;-74
2021/11/21 10:50:29;;;;;;;6.20;4.13;;;9.80;1.00;;;;;;4986545;28;20436;-74
2021/11/21 10:53:06;;;;;;;8.20;4.70;;;9.50;1.00;;;;;;4994105;28;20429;-74
2021/11/21 10:55:41;;;;;;;5.80;3.80;;;9.40;1.00;;;;;;4994276;28;20495;-74
2021/11/21 10:58:27;;;;;;;5.60;3.90;;;9.30;1.00;;;;;;5004702;28;20567;-75
2021/11/21 11:04:17;;;;;;;6.40;4.17;;;8.90;1.00;;;;;;4987534;28;20392;-77
2021/11/21 11:06:49;;;;;;;7.43;4.00;;;8.80;1.00;;;;;;4981808;28;20521;-78
2021/11/21 11:15:49;;;;;;;8.83;4.40;;;8.70;1.00;;;;;;4994109;28;20387;-75
2021/11/21 11:18:16;;;;;;;9.70;4.60;;;8.80;1.00;;;;;;4992313;28;20443;-75
2021/11/21 11:20:49;;;;;;;8.10;4.40;;;8.90;1.00;;;;;;5002431;28;20435;-75
2021/11/21 11:23:20;;;;;;;8.67;4.43;;;8.90;1.00;;;;;;5001474;28;20419;-75
2021/11/21 11:25:47;;;;;;;6.63;3.97;;;9.00;1.00;;;;;;5006642;28;20460;-75
2021/11/21 11:28:33;;;;;;;8.23;4.50;;;9.00;1.00;;;;;;5009059;28;20432;-75
2021/11/21 11:31:26;;;;;;;18.27;5.50;;;9.10;1.00;;;;;;5013389;28;20427;-74
2021/11/21 11:33:57;;;;;;;7.37;4.33;;;9.30;1.00;;;;;;5009886;28;20431;-74
2021/11/21 11:36:28;;;;;;;6.17;3.93;;;9.10;1.00;;;;;;5015420;28;20495;-74
2021/11/21 11:39:14;;;;;;;6.93;4.23;;;9.10;1.00;;;;;;5015039;28;20477;-74
2021/11/21 11:41:40;;;;;;;9.63;5.10;;;9.20;1.00;;;;;;5013583;28;20404;-74
2021/11/21 11:44:13;;;;;;;8.40;4.43;;;9.10;1.00;;;;;;5009013;28;20428;-74
2021/11/21 11:46:41;;;;;;;8.20;3.97;;;9.10;1.00;;;;;;5014759;28;20423;-74
2021/11/21 11:49:09;;;;;;;7.20;3.73;;;9.10;1.00;;;;;;5003882;28;20436;-74
2021/11/21 11:51:49;;;;;;;4.77;3.53;;;9.10;1.00;;;;;;5015194;28;20917;-74
2021/11/21 11:54:15;;;;;;;5.47;3.73;;;9.00;1.00;;;;;;5012909;28;20447;-74
2021/11/21 11:57:04;;;;;;;5.40;3.50;;;9.10;1.00;;;;;;5016441;28;20505;-74
2021/11/21 11:59:33;;;;;;;7.13;3.40;;;9.00;1.00;;;;;;5013787;28;20565;-74
2021/11/21 12:02:27;;;;;;;5.70;3.87;;;9.00;1.00;;;;;;5010000;28;20551;-73
2021/11/21 12:04:57;;;;;;;5.50;3.60;;;8.90;1.00;;;;;;5010417;28;20419;-74
2021/11/21 12:07:28;;;;;;;4.90;3.50;;;9.00;1.00;;;;;;5014588;28;20470;-74
2021/11/21 12:10:03;;;;;;;4.67;3.53;;;8.90;1.00;;;;;;5014653;28;20424;-74
2021/11/21 12:13:08;;;;;;;10.10;3.93;;;8.90;1.00;;;;;;5011241;28;20921;-74
2021/11/21 12:15:51;;;;;;;2.93;2.70;;;9.00;1.00;;;;;;4983751;28;20476;-74
2021/11/21 12:18:19;;;;;;;5.70;3.03;;;9.00;1.00;;;;;;4968783;28;20421;-75
2021/11/21 12:20:58;;;;;;;8.87;3.57;;;9.00;1.00;;;;;;4985187;28;20492;-75
2021/11/21 12:23:42;;;;;;;5.67;3.37;;;9.00;1.00;;;;;;4985757;28;20479;-75
2021/11/21 12:26:41;;;;;;;7.10;3.63;;;9.00;1.00;;;;;;4995526;28;20468;-75
2021/11/21 12:29:09;;;;;;;6.60;3.20;;;9.00;1.00;;;;;;4938345;29;20580;-76
2021/11/21 12:31:40;;;;;;;4.90;3.30;;;8.90;1.00;;;;;;4935099;29;20450;-74
2021/11/21 12:34:31;;;;;;;4.07;3.17;;;8.90;1.00;;;;;;4934208;29;20833;-75
2021/11/21 12:37:30;;;;;;;4.73;3.10;;;8.90;1.00;;;;;;4933421;29;20437;-75
2021/11/21 12:40:06;;;;;;;5.17;3.37;;;9.00;1.00;;;;;;4938558;29;20460;-75
2021/11/21 12:42:32;;;;;;;3.37;2.60;;;9.10;1.00;;;;;;4945005;29;20432;-75
2021/11/21 12:45:18;;;;;;;3.80;2.83;;;9.20;1.00;;;;;;4939033;29;20799;-78
2021/11/21 12:47:51;;;;;;;5.50;3.50;;;9.20;1.00;;;;;;4937848;29;20439;-78
2021/11/21 12:51:04;;;;;;;5.77;3.20;;;9.30;1.00;;;;;;4934493;29;20478;-78
2021/11/21 12:53:37;;;;;;;3.63;3.03;;;9.40;1.00;;;;;;4896424;29;20500;-78
2021/11/21 12:56:09;;;;;;;3.47;2.83;;;9.30;1.00;;;;;;4883395;29;20940;-77
2021/11/21 12:58:43;;;;;;;5.83;2.70;;;9.20;1.00;;;;;;4896167;29;20516;-78
2021/11/21 13:04:49;;;;;;;4.17;3.00;;;9.10;1.00;;;;;;4910147;29;20425;-78
2021/11/21 13:07:42;;;;;;;3.70;3.00;;;9.20;1.00;;;;;;4952621;29;20426;-79
2021/11/21 13:13:40;;;;;;;3.50;3.00;;;9.20;1.00;;;;;;4942869;28;20422;-79
2021/11/21 13:16:15;;;;;;;3.93;3.13;;;9.30;1.00;;;;;;4956121;28;20509;-74
2021/11/21 13:18:44;;;;;;;6.80;3.37;;;9.30;1.00;;;;;;4951638;29;20430;-74
2021/11/21 13:21:18;;;;;;;4.30;2.80;;;9.30;1.00;;;;;;4951991;29;20549;-74
2021/11/21 13:23:59;;;;;;;4.50;3.57;;;9.30;1.00;;;;;;4948544;28;20906;-74
2021/11/21 13:26:37;;;;;;;3.43;2.97;;;9.20;1.00;;;;;;4951382;28;20422;-74
2021/11/21 13:29:05;;;;;;;5.97;3.80;;;;;;;;;;5008176;28;20950;-74
2021/11/21 13:31:37;;;;;;;5.80;3.63;;;9.30;1.00;;;;;;4999769;28;20425;-74
2021/11/21 13:34:19;;;;;;;5.03;2.80;;;9.30;1.00;;;;;;5009410;28;20438;-76
2021/11/21 13:36:58;;;;;;;4.33;2.50;;;9.20;1.00;;;;;;5006828;28;20557;-74
2021/11/21 13:39:29;;;;;;;7.83;3.23;;;9.20;1.00;;;;;;5008276;28;20675;-74
2021/11/21 13:41:58;;;;;;;3.27;2.97;;;9.20;1.00;;;;;;5000555;28;20922;-75
2021/11/21 13:44:27;;;;;;;6.40;3.50;;;9.20;1.00;;;;;;5018103;28;20436;-74
2021/11/21 13:46:59;;;;;;;3.80;2.60;;;9.20;1.00;;;;;;4999526;28;20436;-74
2021/11/21 13:49:28;;;;;;;5.80;3.07;;;9.20;1.00;;;;;;5013755;28;20845;-74
2021/11/21 13:52:27;;;;;;;3.83;2.83;;;9.20;1.00;;;;;;5016985;28;20424;-73
2021/11/21 13:55:03;;;;;;;4.57;3.20;;;9.30;1.00;;;;;;5013949;28;20419;-73
2021/11/21 13:57:43;;;;;;;7.40;3.80;;;9.30;1.00;;;;;;5009589;28;20431;-75
2021/11/21 14:00:12;;;;;;;5.23;3.20;;;9.30;1.00;;;;;;5015287;28;20831;-74
2021/11/21 14:02:41;;;;;;;6.47;3.27;;;9.30;1.00;;;;;;5016020;28;20423;-74
2021/11/21 14:05:09;;;;;;;3.33;3.03;;;9.20;1.00;;;;;;5016514;28;20411;-74
2021/11/21 14:07:35;;;;;;;7.13;3.30;;;9.20;1.00;;;;;;5016605;28;20434;-73
2021/11/21 14:10:03;;;;;;;4.93;3.77;;;9.20;1.00;;;;;;5016280;28;20463;-73
2021/11/21 14:12:33;;;;;;;6.37;2.60;;;9.20;1.00;;;;;;5016040;28;20465;-74
2021/11/21 14:15:16;;;;;;;4.53;3.10;;;9.10;1.00;;;;;;5016292;28;20451;-73